createdAt,value
2022-11-17T00:01:22.601Z,5.80
2022-11-17T00:03:50.066Z,5.38
2022-11-17T00:06:17.945Z,5.03
2022-11-17T00:08:44.551Z,4.93
2022-11-17T00:11:11.013Z,4.53
2022-11-17T00:13:56.065Z,5.20
2022-11-17T00:16:22.713Z,4.88
2022-11-17T00:19:08.084Z,5.07
2022-11-17T00:21:35.053Z,4.97
2022-11-17T00:24:01.711Z,4.38
2022-11-17T00:26:30.742Z,4.07
2022-11-17T00:29:02.293Z,4.05
2022-11-17T00:31:49.061Z,4.25
2022-11-17T00:34:21.194Z,3.92
2022-11-17T00:36:52.235Z,4.60
2022-11-17T00:39:20.640Z,3.40
2022-11-17T00:41:47.482Z,3.75
2022-11-17T00:44:14.645Z,3.15
2022-11-17T00:46:41.743Z,3.20
2022-11-17T00:49:09.460Z,3.35
2022-11-17T00:51:37.582Z,3.10
2022-11-17T00:54:05.124Z,2.88
2022-11-17T00:56:31.783Z,3.10
2022-11-17T00:58:58.424Z,2.88
2022-11-17T01:01:25.253Z,2.80
2022-11-17T01:04:02.700Z,3.17
2022-11-17T01:06:32.469Z,3.03
2022-11-17T01:09:01.056Z,2.58
2022-11-17T01:11:27.932Z,2.92
2022-11-17T01:13:56.587Z,3.08
2022-11-17T01:16:23.520Z,3.00
2022-11-17T01:18:51.311Z,3.08
2022-11-17T01:21:21.161Z,3.10
2022-11-17T01:23:49.185Z,2.75
2022-11-17T01:26:20.878Z,3.38
2022-11-17T01:28:48.359Z,3.03
2022-11-17T01:31:23.026Z,3.15
2022-11-17T01:33:49.694Z,3.40
2022-11-17T01:36:19.650Z,3.40
2022-11-17T01:38:46.609Z,3.17
2022-11-17T01:41:22.132Z,2.78
2022-11-17T01:43:48.594Z,3.80
2022-11-17T01:46:28.162Z,3.58
2022-11-17T01:48:59.327Z,3.13
2022-11-17T01:51:27.263Z,3.67
2022-11-17T01:53:53.790Z,3.35
2022-11-17T01:56:28.310Z,3.22
2022-11-17T01:58:58.742Z,3.30
2022-11-17T02:01:25.246Z,2.85
2022-11-17T02:03:51.908Z,2.63
2022-11-17T02:06:27.083Z,2.30
2022-11-17T02:11:20.403Z,2.33
2022-11-17T02:13:47.350Z,3.00
2022-11-17T02:16:15.486Z,2.53
2022-11-17T02:18:42.743Z,2.60
2022-11-17T02:21:28.647Z,2.92
2022-11-17T02:24:20.613Z,2.80
2022-11-17T02:27:11.943Z,2.45
2022-11-17T02:29:57.554Z,2.63
2022-11-17T02:35:12.247Z,2.35
2022-11-17T02:37:59.124Z,2.05
2022-11-17T02:40:39.854Z,1.98
2022-11-17T02:43:30.312Z,2.88
2022-11-17T02:46:09.058Z,2.30
2022-11-17T02:48:40.664Z,2.00
2022-11-17T02:51:10.674Z,1.90
2022-11-17T02:53:38.001Z,2.22
2022-11-17T02:56:05.157Z,2.45
2022-11-17T02:58:31.613Z,2.20
2022-11-17T03:01:13.249Z,1.98
2022-11-17T03:03:48.791Z,2.05
2022-11-17T03:06:38.534Z,1.90
2022-11-17T03:09:20.374Z,1.42
2022-11-17T03:12:00.104Z,1.75
2022-11-17T03:14:31.805Z,1.80
2022-11-17T03:17:05.806Z,2.05
2022-11-17T03:19:45.007Z,2.10
2022-11-17T03:22:25.188Z,1.88
2022-11-17T03:24:55.629Z,1.98
2022-11-17T03:27:26.377Z,1.65
2022-11-17T03:29:55.710Z,2.05
2022-11-17T03:32:23.557Z,1.85
2022-11-17T03:34:55.256Z,1.40
2022-11-17T03:37:22.855Z,1.80
2022-11-17T03:39:53.352Z,2.05
2022-11-17T03:42:23.577Z,1.60
2022-11-17T03:44:57.194Z,1.95
2022-11-17T03:47:26.159Z,2.00
2022-11-17T03:50:06.468Z,2.15
2022-11-17T03:52:34.558Z,2.47
2022-11-17T03:55:01.372Z,2.10
2022-11-17T03:57:40.786Z,2.97
2022-11-17T04:00:09.477Z,2.92
2022-11-17T04:02:35.964Z,2.63
2022-11-17T04:05:05.438Z,2.65
2022-11-17T04:07:40.326Z,2.83
2022-11-17T04:10:12.324Z,3.08
2022-11-17T04:12:57.567Z,3.00
2022-11-17T04:15:42.689Z,2.40
2022-11-17T04:18:09.208Z,2.75
2022-11-17T04:20:38.548Z,2.28
2022-11-17T04:23:07.145Z,2.97
2022-11-17T04:25:57.322Z,2.55
2022-11-17T04:28:37.293Z,2.45
2022-11-17T04:31:16.693Z,3.00
2022-11-17T04:33:48.173Z,3.50
2022-11-17T04:36:18.926Z,2.78
2022-11-17T04:38:48.195Z,3.30
2022-11-17T04:41:34.764Z,4.20
2022-11-17T04:44:01.836Z,3.97
2022-11-17T04:46:31.013Z,4.07
2022-11-17T04:48:58.242Z,4.00
2022-11-17T04:51:25.860Z,3.60
2022-11-17T04:53:52.640Z,3.33
2022-11-17T04:56:21.021Z,3.60
2022-11-17T04:58:48.017Z,3.60
2022-11-17T05:01:15.826Z,3.15
2022-11-17T05:03:51.157Z,3.65
2022-11-17T05:06:20.808Z,3.00
2022-11-17T05:08:47.767Z,2.80
2022-11-17T05:11:33.815Z,2.55
2022-11-17T05:14:00.710Z,2.88
2022-11-17T05:16:46.181Z,2.58
2022-11-17T05:19:16.008Z,2.78
2022-11-17T05:21:42.580Z,3.13
2022-11-17T05:24:09.274Z,2.58
2022-11-17T05:26:37.294Z,2.50
2022-11-17T05:29:05.272Z,2.92
2022-11-17T05:31:31.817Z,2.95
2022-11-17T05:33:58.647Z,2.63
2022-11-17T05:36:26.211Z,2.67
2022-11-17T05:38:53.145Z,3.90
2022-11-17T05:41:20.192Z,3.00
2022-11-17T05:43:47.036Z,2.88
2022-11-17T05:46:13.525Z,3.03
2022-11-17T05:48:40.285Z,2.90
2022-11-17T05:51:06.754Z,2.40
2022-11-17T05:53:33.590Z,2.58
2022-11-17T05:56:08.064Z,2.60
2022-11-17T05:58:36.616Z,2.07
2022-11-17T06:01:03.974Z,2.03
2022-11-17T06:03:34.804Z,2.30
2022-11-17T06:06:01.514Z,2.30
2022-11-17T06:08:29.212Z,2.90
2022-11-17T06:10:55.940Z,1.98
2022-11-17T06:13:26.090Z,2.50
2022-11-17T06:15:54.486Z,2.45
2022-11-17T06:18:24.708Z,2.17
2022-11-17T06:20:53.516Z,2.30
2022-11-17T06:23:22.834Z,1.90
2022-11-17T06:25:49.632Z,2.10
2022-11-17T06:28:18.826Z,1.80
2022-11-17T06:30:45.367Z,1.90
2022-11-17T06:33:14.802Z,1.60
2022-11-17T06:35:43.183Z,1.50
2022-11-17T06:38:09.750Z,1.55
2022-11-17T06:40:36.308Z,2.20
2022-11-17T06:43:09.573Z,1.80
2022-11-17T06:45:38.808Z,1.52
2022-11-17T06:48:06.485Z,1.80
2022-11-17T06:50:33.407Z,2.00
2022-11-17T06:53:03.906Z,2.13
2022-11-17T06:55:30.568Z,2.15
2022-11-17T06:58:02.162Z,2.15
2022-11-17T07:00:29.403Z,1.85
2022-11-17T07:03:09.751Z,1.80
2022-11-17T07:05:40.317Z,1.42
2022-11-17T07:08:08.416Z,3.00
2022-11-17T07:10:35.289Z,2.00
2022-11-17T07:13:02.030Z,2.63
2022-11-17T07:15:28.618Z,2.13
2022-11-17T07:17:55.168Z,2.08
2022-11-17T07:20:21.768Z,2.33
2022-11-17T07:22:48.640Z,2.75
2022-11-17T07:25:21.075Z,2.00
2022-11-17T07:27:48.971Z,1.95
2022-11-17T07:30:15.857Z,2.15
2022-11-17T07:32:42.439Z,2.47
2022-11-17T07:35:09.169Z,1.88
2022-11-17T07:37:35.779Z,1.77
2022-11-17T07:40:02.332Z,2.70
2022-11-17T07:42:28.938Z,2.53
2022-11-17T07:44:55.487Z,2.20
2022-11-17T07:47:21.998Z,2.03
2022-11-17T07:49:48.533Z,1.83
2022-11-17T07:52:15.063Z,2.53
2022-11-17T07:54:41.662Z,2.60
2022-11-17T07:57:08.261Z,2.50
2022-11-17T07:59:34.767Z,2.30
2022-11-17T08:02:01.311Z,2.33
2022-11-17T08:04:30.602Z,1.98
2022-11-17T08:06:57.206Z,2.40
2022-11-17T08:09:23.790Z,1.65
2022-11-17T08:11:51.845Z,2.10
2022-11-17T08:14:18.449Z,2.65
2022-11-17T08:16:45.046Z,2.35
2022-11-17T08:19:12.227Z,2.20
2022-11-17T08:21:38.834Z,2.60
2022-11-17T08:24:05.717Z,2.63
2022-11-17T08:26:32.312Z,3.03
2022-11-17T08:28:59.462Z,2.55
2022-11-17T08:31:26.037Z,2.05
2022-11-17T08:33:52.737Z,2.85
2022-11-17T08:36:19.293Z,3.03
2022-11-17T08:38:45.882Z,2.28
2022-11-17T08:41:12.412Z,1.95
2022-11-17T08:43:38.956Z,3.03
2022-11-17T08:46:05.723Z,2.22
2022-11-17T08:48:33.269Z,1.98
2022-11-17T08:51:05.740Z,1.88
2022-11-17T08:53:32.381Z,2.10
2022-11-17T08:55:59.410Z,2.05
2022-11-17T08:58:26.026Z,2.05
2022-11-17T09:00:52.636Z,2.70
2022-11-17T09:03:19.221Z,2.35
2022-11-17T09:05:49.236Z,2.50
2022-11-17T09:08:43.795Z,2.80
2022-11-17T09:11:06.971Z,2.80
2022-11-17T09:13:34.043Z,2.45
2022-11-17T09:16:02.498Z,2.53
2022-11-17T09:18:29.171Z,3.03
2022-11-17T09:21:02.943Z,3.28
2022-11-17T09:23:31.643Z,3.15
2022-11-17T09:25:59.121Z,2.85
2022-11-17T09:28:26.228Z,3.85
2022-11-17T09:30:53.549Z,3.35
2022-11-17T09:33:20.102Z,3.05
2022-11-17T09:35:46.812Z,3.47
2022-11-17T09:38:13.332Z,2.97
2022-11-17T09:40:40.527Z,3.00
2022-11-17T09:43:28.587Z,2.72
2022-11-17T09:46:06.112Z,3.45
2022-11-17T09:48:45.707Z,2.85
2022-11-17T09:51:14.922Z,3.05
2022-11-17T09:53:48.963Z,3.10
2022-11-17T09:56:15.586Z,2.85
2022-11-17T09:58:47.933Z,3.30
2022-11-17T10:01:21.977Z,3.63
2022-11-17T10:03:50.854Z,2.58
2022-11-17T10:06:20.512Z,2.40
2022-11-17T10:09:11.628Z,3.05
2022-11-17T10:11:41.249Z,2.83
2022-11-17T10:14:22.248Z,2.60
2022-11-17T10:16:57.759Z,2.50
2022-11-17T10:19:29.194Z,2.88
2022-11-17T10:22:01.819Z,2.83
2022-11-17T10:24:42.861Z,3.60
2022-11-17T10:27:24.972Z,2.30
2022-11-17T10:30:03.844Z,3.47
2022-11-17T10:32:33.790Z,2.75
2022-11-17T10:35:15.093Z,2.10
2022-11-17T10:38:02.381Z,2.28
2022-11-17T10:40:31.662Z,1.95
2022-11-17T10:43:13.326Z,2.25
2022-11-17T10:45:50.893Z,1.92
2022-11-17T10:48:20.395Z,2.42
2022-11-17T10:50:57.543Z,1.75
2022-11-17T10:53:41.331Z,1.88
2022-11-17T10:56:21.899Z,2.03
2022-11-17T10:58:58.088Z,1.90
2022-11-17T11:01:44.915Z,1.80
2022-11-17T11:04:29.907Z,1.52
2022-11-17T11:07:11.051Z,2.00
2022-11-17T11:09:43.364Z,1.38
2022-11-17T11:12:17.515Z,2.47
2022-11-17T11:14:49.072Z,2.08
2022-11-17T11:17:16.856Z,2.45
2022-11-17T11:19:52.612Z,1.80
2022-11-17T11:22:36.315Z,2.22
2022-11-17T11:25:07.829Z,2.83
2022-11-17T11:27:42.524Z,2.97
2022-11-17T11:30:10.620Z,2.83
2022-11-17T11:32:59.231Z,2.83
2022-11-17T11:35:41.002Z,2.17
2022-11-17T11:38:35.531Z,2.70
2022-11-17T11:41:21.262Z,2.72
2022-11-17T11:44:06.147Z,2.17
2022-11-17T11:46:38.583Z,2.38
2022-11-17T11:49:22.041Z,3.20
2022-11-17T11:51:50.194Z,2.88
2022-11-17T11:54:33.043Z,3.13
2022-11-17T11:57:00.870Z,3.20
2022-11-17T11:59:36.781Z,3.10
2022-11-17T12:02:12.624Z,2.65
2022-11-17T12:04:45.341Z,2.75
2022-11-17T12:07:26.216Z,2.80
2022-11-17T12:10:11.820Z,3.22
2022-11-17T12:15:07.292Z,2.83
2022-11-17T12:17:34.434Z,3.10
2022-11-17T12:20:24.339Z,2.88
2022-11-17T12:23:06.523Z,2.85
2022-11-17T12:25:34.979Z,2.58
2022-11-17T12:28:24.144Z,2.58
2022-11-17T12:30:53.084Z,3.15
2022-11-17T12:33:20.382Z,3.30
2022-11-17T12:36:16.963Z,3.88
2022-11-17T12:38:43.569Z,3.70
2022-11-17T12:41:10.150Z,3.90
2022-11-17T12:43:36.696Z,3.20
2022-11-17T12:46:23.847Z,2.85
2022-11-17T12:49:01.982Z,3.17
2022-11-17T12:51:40.309Z,3.22
2022-11-17T12:54:31.378Z,3.40
2022-11-17T12:57:08.721Z,3.35
2022-11-17T13:00:13.741Z,3.10
2022-11-17T13:02:59.487Z,2.92
2022-11-17T13:05:28.123Z,2.92
2022-11-17T13:08:13.479Z,3.30
2022-11-17T13:10:40.361Z,3.20
2022-11-17T13:13:16.405Z,3.55
2022-11-17T13:15:44.529Z,3.50
2022-11-17T13:18:17.943Z,2.90
2022-11-17T13:20:47.035Z,3.50
2022-11-17T13:23:20.417Z,3.45
2022-11-17T13:25:47.010Z,3.80
2022-11-17T13:28:31.106Z,3.35
2022-11-17T13:30:58.831Z,3.13
2022-11-17T13:33:26.209Z,2.50
2022-11-17T13:36:07.189Z,3.42
2022-11-17T13:38:33.749Z,2.83
2022-11-17T13:41:00.976Z,2.83
2022-11-17T13:43:32.113Z,2.58
2022-11-17T13:45:58.731Z,2.90
2022-11-17T13:48:35.011Z,3.00
2022-11-17T13:51:19.767Z,3.00
2022-11-17T13:54:14.156Z,2.33
2022-11-17T13:56:43.054Z,2.30
2022-11-17T13:59:23.115Z,2.25
2022-11-17T14:01:49.996Z,2.25
2022-11-17T14:04:23.827Z,2.58
2022-11-17T14:06:54.324Z,2.63
2022-11-17T14:09:21.082Z,3.15
2022-11-17T14:11:47.611Z,1.88
2022-11-17T14:14:15.311Z,2.28
2022-11-17T14:16:42.036Z,2.53
2022-11-17T14:19:14.682Z,2.20
2022-11-17T14:22:13.189Z,2.58
2022-11-17T14:24:42.955Z,3.58
2022-11-17T14:27:32.476Z,2.30
2022-11-17T14:29:59.112Z,3.38
2022-11-17T14:32:27.373Z,2.42
2022-11-17T14:34:54.628Z,2.65
2022-11-17T14:37:21.281Z,2.25
2022-11-17T14:39:48.019Z,3.45
2022-11-17T14:42:14.565Z,2.45
2022-11-17T14:44:41.066Z,2.67
2022-11-17T14:47:07.594Z,2.55
2022-11-17T14:49:34.090Z,3.05
2022-11-17T14:52:00.689Z,2.33
2022-11-17T14:54:27.242Z,3.10
2022-11-17T14:56:53.789Z,2.88
2022-11-17T14:59:20.344Z,2.00
2022-11-17T15:01:46.858Z,2.95
2022-11-17T15:04:48.313Z,2.67
2022-11-17T15:07:02.575Z,2.80
2022-11-17T15:09:29.203Z,2.47
2022-11-17T15:11:55.790Z,2.28
2022-11-17T15:14:22.333Z,2.72
2022-11-17T15:16:49.117Z,3.03
2022-11-17T15:19:15.710Z,2.63
2022-11-17T15:21:42.410Z,2.38
2022-11-17T15:24:09.341Z,2.85
2022-11-17T15:26:36.161Z,3.55
2022-11-17T15:29:02.824Z,3.20
2022-11-17T15:31:29.336Z,2.70
2022-11-17T15:33:55.919Z,3.30
2022-11-17T15:36:23.085Z,2.75
2022-11-17T15:38:49.951Z,3.10
2022-11-17T15:41:16.812Z,3.50
2022-11-17T15:43:44.378Z,3.65
2022-11-17T15:46:13.205Z,3.50
2022-11-17T15:48:42.821Z,3.65
2022-11-17T15:51:14.619Z,3.05
2022-11-17T15:53:42.205Z,3.60
2022-11-17T15:56:09.888Z,2.53
2022-11-17T15:58:36.788Z,2.85
2022-11-17T16:01:18.991Z,2.55
2022-11-17T16:03:46.129Z,2.60
2022-11-17T16:06:12.950Z,2.63
2022-11-17T16:08:39.976Z,3.22
2022-11-17T16:11:07.004Z,3.10
2022-11-17T16:13:33.612Z,2.78
2022-11-17T16:16:00.151Z,3.03
2022-11-17T16:18:26.821Z,3.30
2022-11-17T16:20:53.716Z,4.10
2022-11-17T16:23:20.669Z,3.15
2022-11-17T16:25:48.193Z,2.90
2022-11-17T16:28:15.008Z,3.30
2022-11-17T16:30:41.797Z,3.13
2022-11-17T16:33:13.143Z,3.25
2022-11-17T16:35:40.657Z,2.83
2022-11-17T16:38:17.014Z,3.10
2022-11-17T16:40:44.051Z,3.08
2022-11-17T16:43:12.467Z,2.70
2022-11-17T16:45:44.631Z,3.40
2022-11-17T16:48:12.030Z,2.83
2022-11-17T16:50:40.461Z,3.13
2022-11-17T16:53:07.053Z,3.25
2022-11-17T16:55:35.288Z,3.47
2022-11-17T16:58:03.201Z,3.10
2022-11-17T17:00:29.891Z,2.88
2022-11-17T17:02:57.212Z,3.80
2022-11-17T17:05:24.796Z,3.10
2022-11-17T17:07:51.399Z,3.58
2022-11-17T17:10:17.970Z,3.53
2022-11-17T17:12:44.733Z,3.33
2022-11-17T17:15:11.394Z,4.03
2022-11-17T17:17:38.417Z,3.17
2022-11-17T17:20:05.451Z,3.50
2022-11-17T17:22:31.953Z,3.03
2022-11-17T17:24:58.518Z,3.03
2022-11-17T17:27:25.224Z,2.97
2022-11-17T17:29:54.600Z,3.42
2022-11-17T17:32:21.096Z,2.65
2022-11-17T17:34:47.632Z,3.75
2022-11-17T17:37:14.138Z,4.00
2022-11-17T17:39:40.777Z,3.40
2022-11-17T17:42:07.244Z,2.92
2022-11-17T17:44:33.775Z,3.50
2022-11-17T17:47:00.299Z,3.08
2022-11-17T17:49:26.767Z,3.13
2022-11-17T17:51:53.293Z,2.97
2022-11-17T17:54:20.811Z,3.55
2022-11-17T17:56:48.064Z,3.00
2022-11-17T17:59:15.842Z,2.55
2022-11-17T18:01:45.745Z,3.33
2022-11-17T18:04:15.825Z,2.83
2022-11-17T18:06:45.968Z,3.00
2022-11-17T18:09:14.584Z,4.07
2022-11-17T18:11:49.565Z,3.58
2022-11-17T18:14:20.428Z,3.30
2022-11-17T18:16:46.947Z,4.45
2022-11-17T18:19:15.153Z,4.65
2022-11-17T18:21:42.370Z,3.95
2022-11-17T18:24:10.704Z,3.42
2022-11-17T18:26:37.955Z,3.50
2022-11-17T18:29:07.212Z,2.80
2022-11-17T18:31:35.844Z,3.25
2022-11-17T18:34:04.891Z,3.75
2022-11-17T18:36:31.571Z,4.00
2022-11-17T18:38:58.754Z,4.07
2022-11-17T18:41:26.499Z,4.30
2022-11-17T18:43:53.246Z,3.97
2022-11-17T18:46:21.820Z,3.88
2022-11-17T18:48:50.858Z,3.78
2022-11-17T18:51:20.625Z,4.20
2022-11-17T18:53:48.843Z,3.75
2022-11-17T18:56:17.384Z,3.75
2022-11-17T18:58:44.394Z,3.83
2022-11-17T19:01:18.201Z,3.92
2022-11-17T19:03:46.646Z,3.42
2022-11-17T19:06:14.708Z,3.95
2022-11-17T19:08:41.525Z,4.25
2022-11-17T19:11:09.067Z,5.10
2022-11-17T19:13:37.025Z,3.65
2022-11-17T19:16:09.192Z,3.95
2022-11-17T19:18:36.092Z,3.72
2022-11-17T19:21:07.291Z,4.47
2022-11-17T19:23:35.310Z,3.90
2022-11-17T19:26:09.849Z,3.50
2022-11-17T19:28:37.205Z,4.10
2022-11-17T19:31:09.004Z,3.95
2022-11-17T19:33:37.481Z,4.13
2022-11-17T19:36:08.574Z,3.50
2022-11-17T19:38:38.268Z,4.57
2022-11-17T19:41:13.167Z,4.05
2022-11-17T19:43:44.843Z,4.00
2022-11-17T19:46:14.884Z,5.03
2022-11-17T19:48:42.466Z,4.28
2022-11-17T19:51:25.784Z,4.47
2022-11-17T19:53:54.247Z,3.65
2022-11-17T19:56:21.683Z,3.42
2022-11-17T19:58:49.763Z,3.10
2022-11-17T20:01:18.669Z,3.25
2022-11-17T20:03:46.243Z,4.05
2022-11-17T20:06:14.636Z,4.18
2022-11-17T20:08:41.700Z,4.57
2022-11-17T20:11:13.257Z,3.15
2022-11-17T20:13:41.400Z,2.92
2022-11-17T20:16:12.417Z,4.03
2022-11-17T20:18:40.360Z,3.70
2022-11-17T20:21:07.398Z,2.75
2022-11-17T20:23:37.378Z,2.85
2022-11-17T20:26:09.658Z,3.25
2022-11-17T20:28:37.673Z,2.83
2022-11-17T20:31:10.066Z,2.58
2022-11-17T20:33:41.303Z,2.47
2022-11-17T20:36:11.766Z,3.45
2022-11-17T20:38:38.307Z,3.47
2022-11-17T20:41:05.475Z,2.72
2022-11-17T20:43:33.283Z,3.42
2022-11-17T20:45:59.832Z,3.53
2022-11-17T20:48:27.782Z,3.45
2022-11-17T20:51:01.230Z,4.00
2022-11-17T20:53:28.560Z,3.88
2022-11-17T20:55:56.225Z,3.55
2022-11-17T20:58:23.244Z,3.85
2022-11-17T21:00:49.820Z,3.90
2022-11-17T21:03:16.385Z,3.63
2022-11-17T21:05:42.903Z,3.40
2022-11-17T21:08:09.629Z,3.88
2022-11-17T21:10:37.043Z,3.30
2022-11-17T21:13:03.577Z,3.33
2022-11-17T21:15:30.082Z,3.67
2022-11-17T21:18:15.215Z,3.17
2022-11-17T21:20:41.733Z,4.00
2022-11-17T21:23:08.272Z,3.30
2022-11-17T21:25:35.698Z,3.03
2022-11-17T21:28:02.338Z,3.20
2022-11-17T21:30:28.858Z,3.53
2022-11-17T21:32:55.481Z,2.83
2022-11-17T21:35:21.975Z,3.08
2022-11-17T21:37:48.472Z,3.17
2022-11-17T21:40:16.191Z,3.00
2022-11-17T21:42:42.764Z,3.30
2022-11-17T21:45:09.992Z,3.63
2022-11-17T21:47:36.498Z,3.45
2022-11-17T21:50:03.434Z,3.42
2022-11-17T21:52:29.942Z,3.10
2022-11-17T21:54:56.581Z,3.58
2022-11-17T21:57:23.244Z,3.92
2022-11-17T21:59:49.716Z,3.72
2022-11-17T22:02:16.228Z,3.72
2022-11-17T22:04:42.692Z,3.75
2022-11-17T22:07:09.275Z,3.85
2022-11-17T22:09:38.509Z,4.55
2022-11-17T22:12:05.112Z,3.30
2022-11-17T22:14:32.042Z,3.30
2022-11-17T22:16:58.740Z,3.25
2022-11-17T22:19:27.982Z,3.45
2022-11-17T22:21:54.648Z,3.30
2022-11-17T22:24:21.391Z,3.33
2022-11-17T22:26:48.072Z,3.33
2022-11-17T22:29:17.469Z,2.90
2022-11-17T22:31:45.327Z,2.92
2022-11-17T22:34:12.996Z,3.05
2022-11-17T22:36:39.961Z,3.03
2022-11-17T22:39:06.725Z,3.72
2022-11-17T22:41:33.241Z,3.35
2022-11-17T22:44:00.414Z,3.78
2022-11-17T22:46:28.117Z,3.47
2022-11-17T22:48:55.050Z,3.28
2022-11-17T22:51:40.181Z,3.13
2022-11-17T22:54:07.967Z,3.08
2022-11-17T22:56:34.528Z,3.38
2022-11-17T22:59:01.185Z,3.20
2022-11-17T23:01:27.692Z,3.25
2022-11-17T23:03:54.427Z,3.80
2022-11-17T23:06:22.597Z,3.90
2022-11-17T23:08:49.138Z,3.80
2022-11-17T23:11:35.899Z,3.13
2022-11-17T23:14:02.468Z,3.20
2022-11-17T23:16:29.203Z,3.38
2022-11-17T23:18:56.357Z,3.45
2022-11-17T23:21:23.533Z,3.22
2022-11-17T23:23:50.860Z,3.05
2022-11-17T23:26:17.568Z,3.38
2022-11-17T23:28:44.533Z,3.38
2022-11-17T23:31:13.113Z,3.10
2022-11-17T23:33:47.444Z,3.22
2022-11-17T23:36:19.513Z,3.73
2022-11-17T23:38:46.581Z,3.58
2022-11-17T23:41:15.344Z,3.30
2022-11-17T23:43:41.922Z,3.20
2022-11-17T23:46:11.432Z,3.30
2022-11-17T23:48:38.146Z,3.28
2022-11-17T23:51:06.142Z,3.00
2022-11-17T23:53:33.286Z,3.03
2022-11-17T23:56:00.315Z,4.05
2022-11-17T23:58:27.281Z,3.22
